sensor_id;sensor_type;location;lat;lon;timestamp;P1;durP1;ratioP1;P2;durP2;ratioP2
54919;SDS011;63804;53.120;8.764;2023-07-13T00:00:29;9.38;;;2.97;;
54919;SDS011;63804;53.120;8.764;2023-07-13T00:02:59;6.70;;;2.90;;
54919;SDS011;63804;53.120;8.764;2023-07-13T00:05:27;6.60;;;2.88;;
54919;SDS011;63804;53.120;8.764;2023-07-13T00:07:55;9.30;;;2.90;;
54919;SDS011;63804;53.120;8.764;2023-07-13T00:10:22;5.65;;;2.58;;
54919;SDS011;63804;53.120;8.764;2023-07-13T00:12:49;6.28;;;2.80;;
54919;SDS011;63804;53.120;8.764;2023-07-13T00:15:19;7.38;;;3.15;;
54919;SDS011;63804;53.120;8.764;2023-07-13T00:17:50;8.75;;;3.20;;
54919;SDS011;63804;53.120;8.764;2023-07-13T00:20:19;7.60;;;3.30;;
54919;SDS011;63804;53.120;8.764;2023-07-13T00:22:52;8.27;;;3.47;;
54919;SDS011;63804;53.120;8.764;2023-07-13T00:25:21;6.47;;;3.10;;
54919;SDS011;63804;53.120;8.764;2023-07-13T00:27:51;8.00;;;3.20;;
54919;SDS011;63804;53.120;8.764;2023-07-13T00:30:18;6.00;;;3.10;;
54919;SDS011;63804;53.120;8.764;2023-07-13T00:32:46;7.88;;;3.63;;
54919;SDS011;63804;53.120;8.764;2023-07-13T00:35:13;6.85;;;3.10;;
54919;SDS011;63804;53.120;8.764;2023-07-13T00:37:42;5.40;;;3.00;;
54919;SDS011;63804;53.120;8.764;2023-07-13T00:40:10;7.28;;;3.28;;
54919;SDS011;63804;53.120;8.764;2023-07-13T00:42:40;6.72;;;3.72;;
54919;SDS011;63804;53.120;8.764;2023-07-13T00:47:41;8.00;;;3.30;;
54919;SDS011;63804;53.120;8.764;2023-07-13T00:50:12;7.07;;;3.80;;
54919;SDS011;63804;53.120;8.764;2023-07-13T00:52:45;6.28;;;2.88;;
54919;SDS011;63804;53.120;8.764;2023-07-13T00:55:14;10.50;;;3.90;;
54919;SDS011;63804;53.120;8.764;2023-07-13T00:57:43;6.13;;;3.13;;
54919;SDS011;63804;53.120;8.764;2023-07-13T01:00:11;8.85;;;3.40;;
54919;SDS011;63804;53.120;8.764;2023-07-13T01:02:39;5.57;;;3.08;;
54919;SDS011;63804;53.120;8.764;2023-07-13T01:05:13;7.25;;;3.50;;
54919;SDS011;63804;53.120;8.764;2023-07-13T01:10:11;8.93;;;3.40;;
54919;SDS011;63804;53.120;8.764;2023-07-13T01:12:39;7.68;;;2.90;;
54919;SDS011;63804;53.120;8.764;2023-07-13T01:18:05;5.25;;;3.20;;
54919;SDS011;63804;53.120;8.764;2023-07-13T01:20:38;6.72;;;3.28;;
54919;SDS011;63804;53.120;8.764;2023-07-13T01:23:07;7.78;;;3.42;;
54919;SDS011;63804;53.120;8.764;2023-07-13T01:25:36;6.80;;;3.40;;
54919;SDS011;63804;53.120;8.764;2023-07-13T01:28:04;7.13;;;3.33;;
54919;SDS011;63804;53.120;8.764;2023-07-13T01:30:36;9.38;;;3.55;;
54919;SDS011;63804;53.120;8.764;2023-07-13T01:33:07;8.85;;;3.75;;
54919;SDS011;63804;53.120;8.764;2023-07-13T01:35:36;6.88;;;3.25;;
54919;SDS011;63804;53.120;8.764;2023-07-13T01:38:04;7.70;;;2.95;;
54919;SDS011;63804;53.120;8.764;2023-07-13T01:40:32;7.93;;;3.35;;
54919;SDS011;63804;53.120;8.764;2023-07-13T01:42:59;8.82;;;3.75;;
54919;SDS011;63804;53.120;8.764;2023-07-13T01:45:27;7.78;;;2.97;;
54919;SDS011;63804;53.120;8.764;2023-07-13T01:47:55;7.40;;;3.35;;
54919;SDS011;63804;53.120;8.764;2023-07-13T01:50:23;7.80;;;3.33;;
54919;SDS011;63804;53.120;8.764;2023-07-13T01:52:50;7.85;;;3.45;;
54919;SDS011;63804;53.120;8.764;2023-07-13T01:55:17;5.75;;;3.03;;
54919;SDS011;63804;53.120;8.764;2023-07-13T01:57:45;6.60;;;3.20;;
54919;SDS011;63804;53.120;8.764;2023-07-13T02:00:13;7.60;;;3.28;;
54919;SDS011;63804;53.120;8.764;2023-07-13T02:02:40;8.07;;;3.40;;
54919;SDS011;63804;53.120;8.764;2023-07-13T02:05:12;11.60;;;3.65;;
54919;SDS011;63804;53.120;8.764;2023-07-13T02:07:40;9.68;;;3.47;;
54919;SDS011;63804;53.120;8.764;2023-07-13T02:10:08;9.77;;;3.40;;
54919;SDS011;63804;53.120;8.764;2023-07-13T02:12:37;8.65;;;3.75;;
54919;SDS011;63804;53.120;8.764;2023-07-13T02:15:05;7.82;;;3.45;;
54919;SDS011;63804;53.120;8.764;2023-07-13T02:17:33;9.38;;;3.83;;
54919;SDS011;63804;53.120;8.764;2023-07-13T02:20:02;12.20;;;3.92;;
54919;SDS011;63804;53.120;8.764;2023-07-13T02:22:30;11.40;;;4.07;;
54919;SDS011;63804;53.120;8.764;2023-07-13T02:24:57;7.88;;;3.92;;
54919;SDS011;63804;53.120;8.764;2023-07-13T02:27:25;9.18;;;3.83;;
54919;SDS011;63804;53.120;8.764;2023-07-13T02:29:52;8.60;;;3.83;;
54919;SDS011;63804;53.120;8.764;2023-07-13T02:32:20;9.77;;;4.30;;
54919;SDS011;63804;53.120;8.764;2023-07-13T02:34:47;11.90;;;4.72;;
54919;SDS011;63804;53.120;8.764;2023-07-13T02:37:15;9.07;;;4.30;;
54919;SDS011;63804;53.120;8.764;2023-07-13T02:39:42;9.57;;;4.18;;
54919;SDS011;63804;53.120;8.764;2023-07-13T02:42:09;10.32;;;3.80;;
54919;SDS011;63804;53.120;8.764;2023-07-13T02:44:36;10.75;;;4.30;;
54919;SDS011;63804;53.120;8.764;2023-07-13T02:47:04;8.15;;;3.97;;
54919;SDS011;63804;53.120;8.764;2023-07-13T02:49:31;9.73;;;3.80;;
54919;SDS011;63804;53.120;8.764;2023-07-13T02:51:59;9.77;;;4.00;;
54919;SDS011;63804;53.120;8.764;2023-07-13T02:54:26;9.98;;;3.88;;
54919;SDS011;63804;53.120;8.764;2023-07-13T02:56:54;9.15;;;3.60;;
54919;SDS011;63804;53.120;8.764;2023-07-13T02:59:21;12.98;;;4.55;;
54919;SDS011;63804;53.120;8.764;2023-07-13T03:01:48;10.70;;;3.88;;
54919;SDS011;63804;53.120;8.764;2023-07-13T03:04:16;10.77;;;3.78;;
54919;SDS011;63804;53.120;8.764;2023-07-13T03:06:46;9.35;;;3.45;;
54919;SDS011;63804;53.120;8.764;2023-07-13T03:09:14;6.15;;;3.25;;
54919;SDS011;63804;53.120;8.764;2023-07-13T03:11:41;9.65;;;3.38;;
54919;SDS011;63804;53.120;8.764;2023-07-13T03:14:09;10.88;;;3.58;;
54919;SDS011;63804;53.120;8.764;2023-07-13T03:16:36;13.90;;;3.65;;
54919;SDS011;63804;53.120;8.764;2023-07-13T03:19:03;11.63;;;3.40;;
54919;SDS011;63804;53.120;8.764;2023-07-13T03:21:30;11.57;;;3.80;;
54919;SDS011;63804;53.120;8.764;2023-07-13T03:26:33;8.88;;;3.40;;
54919;SDS011;63804;53.120;8.764;2023-07-13T03:29:00;12.10;;;3.17;;
54919;SDS011;63804;53.120;8.764;2023-07-13T03:31:29;8.13;;;3.05;;
54919;SDS011;63804;53.120;8.764;2023-07-13T03:33:59;11.05;;;3.40;;
54919;SDS011;63804;53.120;8.764;2023-07-13T03:36:27;11.70;;;3.20;;
54919;SDS011;63804;53.120;8.764;2023-07-13T03:38:56;7.85;;;2.88;;
54919;SDS011;63804;53.120;8.764;2023-07-13T03:41:26;11.00;;;3.17;;
54919;SDS011;63804;53.120;8.764;2023-07-13T03:43:53;9.88;;;3.35;;
54919;SDS011;63804;53.120;8.764;2023-07-13T03:46:20;9.70;;;3.08;;
54919;SDS011;63804;53.120;8.764;2023-07-13T03:48:48;9.85;;;2.97;;
54919;SDS011;63804;53.120;8.764;2023-07-13T03:51:16;11.25;;;3.10;;
54919;SDS011;63804;53.120;8.764;2023-07-13T03:53:45;9.65;;;2.85;;
54919;SDS011;63804;53.120;8.764;2023-07-13T03:56:14;10.30;;;3.03;;
54919;SDS011;63804;53.120;8.764;2023-07-13T03:58:42;9.45;;;2.40;;
54919;SDS011;63804;53.120;8.764;2023-07-13T04:01:12;11.57;;;2.83;;
54919;SDS011;63804;53.120;8.764;2023-07-13T04:03:40;12.55;;;3.13;;
54919;SDS011;63804;53.120;8.764;2023-07-13T04:06:08;13.02;;;3.03;;
54919;SDS011;63804;53.120;8.764;2023-07-13T04:08:42;10.23;;;2.70;;
54919;SDS011;63804;53.120;8.764;2023-07-13T04:11:09;10.55;;;3.00;;
54919;SDS011;63804;53.120;8.764;2023-07-13T04:13:36;11.35;;;2.47;;
54919;SDS011;63804;53.120;8.764;2023-07-13T04:16:04;9.32;;;2.83;;
54919;SDS011;63804;53.120;8.764;2023-07-13T04:18:31;9.43;;;3.20;;
54919;SDS011;63804;53.120;8.764;2023-07-13T04:20:58;11.20;;;2.92;;
54919;SDS011;63804;53.120;8.764;2023-07-13T04:23:25;9.63;;;2.80;;
54919;SDS011;63804;53.120;8.764;2023-07-13T04:25:53;13.75;;;2.97;;
54919;SDS011;63804;53.120;8.764;2023-07-13T04:28:21;12.25;;;2.83;;
54919;SDS011;63804;53.120;8.764;2023-07-13T04:30:50;9.50;;;2.63;;
54919;SDS011;63804;53.120;8.764;2023-07-13T04:33:18;9.30;;;2.85;;
54919;SDS011;63804;53.120;8.764;2023-07-13T04:35:50;9.38;;;2.35;;
54919;SDS011;63804;53.120;8.764;2023-07-13T04:38:22;12.32;;;2.83;;
54919;SDS011;63804;53.120;8.764;2023-07-13T04:40:58;14.98;;;3.03;;
54919;SDS011;63804;53.120;8.764;2023-07-13T04:43:28;15.07;;;2.90;;
54919;SDS011;63804;53.120;8.764;2023-07-13T04:45:56;11.18;;;2.33;;
54919;SDS011;63804;53.120;8.764;2023-07-13T04:48:24;12.25;;;2.65;;
54919;SDS011;63804;53.120;8.764;2023-07-13T04:50:55;10.25;;;2.60;;
54919;SDS011;63804;53.120;8.764;2023-07-13T04:53:24;14.70;;;2.90;;
54919;SDS011;63804;53.120;8.764;2023-07-13T04:55:52;10.77;;;2.72;;
54919;SDS011;63804;53.120;8.764;2023-07-13T04:58:19;11.70;;;2.63;;
54919;SDS011;63804;53.120;8.764;2023-07-13T05:00:48;11.88;;;2.75;;
54919;SDS011;63804;53.120;8.764;2023-07-13T05:03:16;12.07;;;2.75;;
54919;SDS011;63804;53.120;8.764;2023-07-13T05:05:54;10.40;;;2.72;;
54919;SDS011;63804;53.120;8.764;2023-07-13T05:08:25;9.73;;;2.25;;
54919;SDS011;63804;53.120;8.764;2023-07-13T05:10:53;10.90;;;2.60;;
54919;SDS011;63804;53.120;8.764;2023-07-13T05:13:20;11.65;;;2.67;;
54919;SDS011;63804;53.120;8.764;2023-07-13T05:15:55;13.70;;;2.55;;
54919;SDS011;63804;53.120;8.764;2023-07-13T05:18:24;9.68;;;2.30;;
54919;SDS011;63804;53.120;8.764;2023-07-13T05:20:58;10.02;;;2.75;;
54919;SDS011;63804;53.120;8.764;2023-07-13T05:23:27;12.15;;;2.95;;
54919;SDS011;63804;53.120;8.764;2023-07-13T05:25:55;10.95;;;2.70;;
54919;SDS011;63804;53.120;8.764;2023-07-13T05:28:23;12.35;;;2.42;;
54919;SDS011;63804;53.120;8.764;2023-07-13T05:30:50;13.30;;;2.85;;
54919;SDS011;63804;53.120;8.764;2023-07-13T05:33:18;11.77;;;2.70;;
54919;SDS011;63804;53.120;8.764;2023-07-13T05:35:46;13.18;;;2.85;;
54919;SDS011;63804;53.120;8.764;2023-07-13T05:38:13;12.43;;;2.45;;
54919;SDS011;63804;53.120;8.764;2023-07-13T05:40:42;10.93;;;2.50;;
54919;SDS011;63804;53.120;8.764;2023-07-13T05:43:13;13.83;;;2.80;;
54919;SDS011;63804;53.120;8.764;2023-07-13T05:45:41;11.77;;;3.13;;
54919;SDS011;63804;53.120;8.764;2023-07-13T05:48:08;15.95;;;3.25;;
54919;SDS011;63804;53.120;8.764;2023-07-13T05:50:35;11.82;;;3.03;;
54919;SDS011;63804;53.120;8.764;2023-07-13T05:53:03;10.82;;;2.78;;
54919;SDS011;63804;53.120;8.764;2023-07-13T05:55:31;11.23;;;3.08;;
54919;SDS011;63804;53.120;8.764;2023-07-13T05:57:59;13.32;;;2.83;;
54919;SDS011;63804;53.120;8.764;2023-07-13T06:00:27;16.33;;;2.88;;
54919;SDS011;63804;53.120;8.764;2023-07-13T06:02:55;11.55;;;3.10;;
54919;SDS011;63804;53.120;8.764;2023-07-13T06:05:23;10.20;;;3.00;;
54919;SDS011;63804;53.120;8.764;2023-07-13T06:07:51;14.02;;;2.97;;
54919;SDS011;63804;53.120;8.764;2023-07-13T06:10:18;11.13;;;2.72;;
54919;SDS011;63804;53.120;8.764;2023-07-13T06:12:45;12.88;;;3.10;;
54919;SDS011;63804;53.120;8.764;2023-07-13T06:15:13;13.55;;;3.50;;
54919;SDS011;63804;53.120;8.764;2023-07-13T06:17:44;13.05;;;3.22;;
54919;SDS011;63804;53.120;8.764;2023-07-13T06:20:12;12.95;;;2.58;;
54919;SDS011;63804;53.120;8.764;2023-07-13T06:22:39;11.35;;;2.92;;
54919;SDS011;63804;53.120;8.764;2023-07-13T06:25:07;15.77;;;3.20;;
54919;SDS011;63804;53.120;8.764;2023-07-13T06:27:34;11.88;;;3.25;;
54919;SDS011;63804;53.120;8.764;2023-07-13T06:30:01;15.07;;;3.38;;
54919;SDS011;63804;53.120;8.764;2023-07-13T06:32:29;11.57;;;3.20;;
54919;SDS011;63804;53.120;8.764;2023-07-13T06:34:56;12.48;;;3.25;;
54919;SDS011;63804;53.120;8.764;2023-07-13T06:37:23;13.85;;;3.53;;
54919;SDS011;63804;53.120;8.764;2023-07-13T06:39:51;9.18;;;3.03;;
54919;SDS011;63804;53.120;8.764;2023-07-13T06:42:18;12.60;;;3.30;;
54919;SDS011;63804;53.120;8.764;2023-07-13T06:44:45;17.50;;;3.55;;
54919;SDS011;63804;53.120;8.764;2023-07-13T06:47:12;13.95;;;3.15;;
54919;SDS011;63804;53.120;8.764;2023-07-13T06:49:40;18.75;;;3.70;;
54919;SDS011;63804;53.120;8.764;2023-07-13T06:52:07;12.27;;;3.03;;
54919;SDS011;63804;53.120;8.764;2023-07-13T06:54:34;10.63;;;3.10;;
54919;SDS011;63804;53.120;8.764;2023-07-13T06:57:02;11.20;;;3.05;;
54919;SDS011;63804;53.120;8.764;2023-07-13T06:59:29;12.60;;;3.40;;
54919;SDS011;63804;53.120;8.764;2023-07-13T07:01:56;8.70;;;2.70;;
54919;SDS011;63804;53.120;8.764;2023-07-13T07:04:24;8.57;;;2.53;;
54919;SDS011;63804;53.120;8.764;2023-07-13T07:06:51;13.18;;;3.25;;
54919;SDS011;63804;53.120;8.764;2023-07-13T07:09:18;14.05;;;3.22;;
54919;SDS011;63804;53.120;8.764;2023-07-13T07:11:46;12.10;;;2.92;;
54919;SDS011;63804;53.120;8.764;2023-07-13T07:14:29;12.23;;;3.08;;
54919;SDS011;63804;53.120;8.764;2023-07-13T07:16:57;11.50;;;3.28;;
54919;SDS011;63804;53.120;8.764;2023-07-13T07:19:27;11.77;;;3.35;;
54919;SDS011;63804;53.120;8.764;2023-07-13T07:21:56;11.93;;;3.10;;
54919;SDS011;63804;53.120;8.764;2023-07-13T07:24:23;11.82;;;3.28;;
54919;SDS011;63804;53.120;8.764;2023-07-13T07:26:51;11.23;;;2.72;;
54919;SDS011;63804;53.120;8.764;2023-07-13T07:29:21;12.68;;;3.13;;
54919;SDS011;63804;53.120;8.764;2023-07-13T07:31:52;12.05;;;3.20;;
54919;SDS011;63804;53.120;8.764;2023-07-13T07:34:22;9.35;;;2.92;;
54919;SDS011;63804;53.120;8.764;2023-07-13T07:36:51;11.48;;;3.00;;
54919;SDS011;63804;53.120;8.764;2023-07-13T07:39:21;12.45;;;3.05;;
54919;SDS011;63804;53.120;8.764;2023-07-13T07:41:48;11.68;;;3.08;;
54919;SDS011;63804;53.120;8.764;2023-07-13T07:44:19;12.90;;;3.25;;
54919;SDS011;63804;53.120;8.764;2023-07-13T07:46:46;10.60;;;3.10;;
54919;SDS011;63804;53.120;8.764;2023-07-13T07:49:13;13.75;;;2.95;;
54919;SDS011;63804;53.120;8.764;2023-07-13T07:51:41;10.25;;;2.95;;
54919;SDS011;63804;53.120;8.764;2023-07-13T07:54:11;8.75;;;2.97;;
54919;SDS011;63804;53.120;8.764;2023-07-13T07:56:47;11.48;;;2.88;;
54919;SDS011;63804;53.120;8.764;2023-07-13T07:59:36;10.15;;;3.00;;
54919;SDS011;63804;53.120;8.764;2023-07-13T08:02:08;7.33;;;2.40;;
54919;SDS011;63804;53.120;8.764;2023-07-13T08:04:57;9.52;;;2.58;;
54919;SDS011;63804;53.120;8.764;2023-07-13T08:07:28;8.65;;;2.90;;
54919;SDS011;63804;53.120;8.764;2023-07-13T08:09:58;10.63;;;2.78;;
54919;SDS011;63804;53.120;8.764;2023-07-13T08:12:25;9.88;;;3.22;;
54919;SDS011;63804;53.120;8.764;2023-07-13T08:14:56;7.85;;;2.58;;
54919;SDS011;63804;53.120;8.764;2023-07-13T08:17:28;10.75;;;3.10;;
54919;SDS011;63804;53.120;8.764;2023-07-13T08:19:55;8.40;;;2.45;;
54919;SDS011;63804;53.120;8.764;2023-07-13T08:22:22;8.88;;;2.75;;
54919;SDS011;63804;53.120;8.764;2023-07-13T08:24:50;11.50;;;2.90;;
54919;SDS011;63804;53.120;8.764;2023-07-13T08:27:23;7.85;;;2.75;;
54919;SDS011;63804;53.120;8.764;2023-07-13T08:29:52;7.78;;;2.80;;
54919;SDS011;63804;53.120;8.764;2023-07-13T08:32:20;10.82;;;2.80;;
54919;SDS011;63804;53.120;8.764;2023-07-13T08:34:48;11.88;;;2.90;;
54919;SDS011;63804;53.120;8.764;2023-07-13T08:37:16;8.90;;;2.70;;
54919;SDS011;63804;53.120;8.764;2023-07-13T08:39:44;10.10;;;2.90;;
54919;SDS011;63804;53.120;8.764;2023-07-13T08:44:46;9.07;;;2.50;;
54919;SDS011;63804;53.120;8.764;2023-07-13T08:47:22;9.30;;;3.00;;
54919;SDS011;63804;53.120;8.764;2023-07-13T08:49:51;8.50;;;2.70;;
54919;SDS011;63804;53.120;8.764;2023-07-13T08:52:33;8.18;;;2.80;;
54919;SDS011;63804;53.120;8.764;2023-07-13T08:55:05;9.93;;;2.67;;
54919;SDS011;63804;53.120;8.764;2023-07-13T08:57:40;8.60;;;2.80;;
54919;SDS011;63804;53.120;8.764;2023-07-13T09:00:10;9.73;;;2.63;;
54919;SDS011;63804;53.120;8.764;2023-07-13T09:02:46;8.95;;;2.95;;
54919;SDS011;63804;53.120;8.764;2023-07-13T09:05:34;9.43;;;2.83;;
54919;SDS011;63804;53.120;8.764;2023-07-13T09:08:22;7.55;;;2.53;;
54919;SDS011;63804;53.120;8.764;2023-07-13T09:13:47;6.18;;;2.50;;
54919;SDS011;63804;53.120;8.764;2023-07-13T09:16:24;9.65;;;2.90;;
54919;SDS011;63804;53.120;8.764;2023-07-13T09:18:53;8.65;;;2.90;;
54919;SDS011;63804;53.120;8.764;2023-07-13T09:21:30;8.38;;;3.00;;
54919;SDS011;63804;53.120;8.764;2023-07-13T09:24:03;10.65;;;3.00;;
54919;SDS011;63804;53.120;8.764;2023-07-13T09:26:52;9.63;;;2.92;;
54919;SDS011;63804;53.120;8.764;2023-07-13T09:29:23;8.27;;;2.42;;
54919;SDS011;63804;53.120;8.764;2023-07-13T09:31:57;9.60;;;2.88;;
54919;SDS011;63804;53.120;8.764;2023-07-13T09:34:28;9.45;;;2.53;;
54919;SDS011;63804;53.120;8.764;2023-07-13T09:36:57;8.13;;;2.58;;
54919;SDS011;63804;53.120;8.764;2023-07-13T09:39:29;6.57;;;2.40;;
54919;SDS011;63804;53.120;8.764;2023-07-13T09:42:01;10.13;;;2.50;;
54919;SDS011;63804;53.120;8.764;2023-07-13T09:44:33;5.53;;;1.83;;
54919;SDS011;63804;53.120;8.764;2023-07-13T09:47:02;7.20;;;2.00;;
54919;SDS011;63804;53.120;8.764;2023-07-13T09:49:41;6.88;;;2.13;;
54919;SDS011;63804;53.120;8.764;2023-07-13T09:52:11;8.07;;;2.10;;
54919;SDS011;63804;53.120;8.764;2023-07-13T09:54:44;5.90;;;2.03;;
54919;SDS011;63804;53.120;8.764;2023-07-13T09:57:17;7.03;;;1.98;;
54919;SDS011;63804;53.120;8.764;2023-07-13T09:59:46;6.97;;;1.90;;
54919;SDS011;63804;53.120;8.764;2023-07-13T10:02:23;6.38;;;2.10;;
54919;SDS011;63804;53.120;8.764;2023-07-13T10:04:57;5.82;;;1.95;;
54919;SDS011;63804;53.120;8.764;2023-07-13T10:07:26;4.60;;;2.08;;
54919;SDS011;63804;53.120;8.764;2023-07-13T10:09:56;7.55;;;2.00;;
54919;SDS011;63804;53.120;8.764;2023-07-13T10:12:29;5.53;;;1.83;;
54919;SDS011;63804;53.120;8.764;2023-07-13T10:15:02;6.35;;;2.42;;
54919;SDS011;63804;53.120;8.764;2023-07-13T10:17:51;7.50;;;2.20;;
54919;SDS011;63804;53.120;8.764;2023-07-13T10:20:22;7.60;;;2.38;;
54919;SDS011;63804;53.120;8.764;2023-07-13T10:25:33;6.13;;;2.20;;
54919;SDS011;63804;53.120;8.764;2023-07-13T10:28:06;7.25;;;2.20;;
54919;SDS011;63804;53.120;8.764;2023-07-13T10:30:48;5.35;;;1.95;;
54919;SDS011;63804;53.120;8.764;2023-07-13T10:33:17;5.32;;;1.98;;
54919;SDS011;63804;53.120;8.764;2023-07-13T10:35:44;5.85;;;2.00;;
54919;SDS011;63804;53.120;8.764;2023-07-13T10:38:14;7.53;;;2.20;;
54919;SDS011;63804;53.120;8.764;2023-07-13T10:43:28;5.50;;;2.13;;
54919;SDS011;63804;53.120;8.764;2023-07-13T10:46:04;7.05;;;2.00;;
54919;SDS011;63804;53.120;8.764;2023-07-13T10:48:34;5.90;;;1.60;;
54919;SDS011;63804;53.120;8.764;2023-07-13T10:51:04;5.10;;;1.58;;
54919;SDS011;63804;53.120;8.764;2023-07-13T10:53:34;2.47;;;1.30;;
54919;SDS011;63804;53.120;8.764;2023-07-13T10:56:04;1.65;;;1.10;;
54919;SDS011;63804;53.120;8.764;2023-07-13T10:58:43;4.25;;;1.30;;
54919;SDS011;63804;53.120;8.764;2023-07-13T11:09:43;5.68;;;2.50;;
54919;SDS011;63804;53.120;8.764;2023-07-13T11:11:45;5.35;;;1.83;;
54919;SDS011;63804;53.120;8.764;2023-07-13T11:16:54;5.32;;;1.85;;
54919;SDS011;63804;53.120;8.764;2023-07-13T11:24:48;3.17;;;1.60;;
54919;SDS011;63804;53.120;8.764;2023-07-13T11:27:22;5.07;;;1.50;;
54919;SDS011;63804;53.120;8.764;2023-07-13T11:30:08;4.93;;;1.60;;
54919;SDS011;63804;53.120;8.764;2023-07-13T11:32:50;2.72;;;1.70;;
54919;SDS011;63804;53.120;8.764;2023-07-13T11:35:22;4.57;;;1.85;;
54919;SDS011;63804;53.120;8.764;2023-07-13T11:37:53;5.40;;;1.80;;
54919;SDS011;63804;53.120;8.764;2023-07-13T11:40:21;4.00;;;1.63;;
54919;SDS011;63804;53.120;8.764;2023-07-13T11:42:52;4.53;;;1.60;;
54919;SDS011;63804;53.120;8.764;2023-07-13T11:45:28;4.82;;;1.48;;
54919;SDS011;63804;53.120;8.764;2023-07-13T11:51:05;3.10;;;1.58;;
54919;SDS011;63804;53.120;8.764;2023-07-13T11:53:38;2.92;;;1.48;;
54919;SDS011;63804;53.120;8.764;2023-07-13T11:56:07;2.17;;;1.20;;
54919;SDS011;63804;53.120;8.764;2023-07-13T11:58:35;2.60;;;1.10;;
54919;SDS011;63804;53.120;8.764;2023-07-13T12:01:03;3.38;;;1.50;;
54919;SDS011;63804;53.120;8.764;2023-07-13T12:03:33;2.13;;;1.25;;
54919;SDS011;63804;53.120;8.764;2023-07-13T12:06:03;3.42;;;1.20;;
54919;SDS011;63804;53.120;8.764;2023-07-13T12:08:38;3.15;;;1.17;;
54919;SDS011;63804;53.120;8.764;2023-07-13T12:11:13;3.20;;;1.20;;
54919;SDS011;63804;53.120;8.764;2023-07-13T12:13:44;6.43;;;1.40;;
54919;SDS011;63804;53.120;8.764;2023-07-13T12:16:16;4.15;;;1.70;;
54919;SDS011;63804;53.120;8.764;2023-07-13T12:18:52;3.67;;;1.52;;
54919;SDS011;63804;53.120;8.764;2023-07-13T12:21:22;4.32;;;1.65;;
54919;SDS011;63804;53.120;8.764;2023-07-13T12:23:55;3.50;;;1.48;;
54919;SDS011;63804;53.120;8.764;2023-07-13T12:26:23;5.65;;;1.70;;
54919;SDS011;63804;53.120;8.764;2023-07-13T12:28:53;5.30;;;1.50;;
54919;SDS011;63804;53.120;8.764;2023-07-13T12:31:30;4.10;;;1.50;;
54919;SDS011;63804;53.120;8.764;2023-07-13T12:34:07;2.90;;;1.20;;
54919;SDS011;63804;53.120;8.764;2023-07-13T12:42:20;3.38;;;1.20;;
54919;SDS011;63804;53.120;8.764;2023-07-13T12:45:02;2.88;;;1.40;;
54919;SDS011;63804;53.120;8.764;2023-07-13T12:47:42;2.40;;;1.40;;
54919;SDS011;63804;53.120;8.764;2023-07-13T12:50:16;3.13;;;1.42;;
54919;SDS011;63804;53.120;8.764;2023-07-13T12:52:59;4.30;;;1.38;;
54919;SDS011;63804;53.120;8.764;2023-07-13T12:55:30;4.03;;;1.40;;
54919;SDS011;63804;53.120;8.764;2023-07-13T12:58:02;3.15;;;1.23;;
54919;SDS011;63804;53.120;8.764;2023-07-13T13:00:32;4.25;;;1.30;;
54919;SDS011;63804;53.120;8.764;2023-07-13T13:03:05;5.05;;;1.48;;
54919;SDS011;63804;53.120;8.764;2023-07-13T13:05:56;2.88;;;1.25;;
54919;SDS011;63804;53.120;8.764;2023-07-13T13:08:26;3.38;;;1.50;;
54919;SDS011;63804;53.120;8.764;2023-07-13T13:10:53;5.70;;;1.45;;
54919;SDS011;63804;53.120;8.764;2023-07-13T13:13:21;2.33;;;1.20;;
54919;SDS011;63804;53.120;8.764;2023-07-13T13:15:48;3.78;;;1.33;;
54919;SDS011;63804;53.120;8.764;2023-07-13T13:18:16;2.25;;;1.30;;
54919;SDS011;63804;53.120;8.764;2023-07-13T13:20:45;3.20;;;1.35;;
54919;SDS011;63804;53.120;8.764;2023-07-13T13:23:14;2.05;;;1.27;;
54919;SDS011;63804;53.120;8.764;2023-07-13T13:25:48;2.05;;;1.20;;
54919;SDS011;63804;53.120;8.764;2023-07-13T13:28:20;3.22;;;1.42;;
54919;SDS011;63804;53.120;8.764;2023-07-13T13:30:49;2.17;;;1.27;;
54919;SDS011;63804;53.120;8.764;2023-07-13T13:33:18;2.25;;;1.45;;
54919;SDS011;63804;53.120;8.764;2023-07-13T13:35:47;2.97;;;1.30;;
54919;SDS011;63804;53.120;8.764;2023-07-13T13:38:19;2.08;;;1.10;;
54919;SDS011;63804;53.120;8.764;2023-07-13T13:40:51;2.97;;;1.20;;
54919;SDS011;63804;53.120;8.764;2023-07-13T13:43:21;3.58;;;1.35;;
54919;SDS011;63804;53.120;8.764;2023-07-13T13:45:53;2.22;;;1.30;;
54919;SDS011;63804;53.120;8.764;2023-07-13T13:48:31;3.10;;;1.67;;
54919;SDS011;63804;53.120;8.764;2023-07-13T13:51:00;3.38;;;1.40;;
54919;SDS011;63804;53.120;8.764;2023-07-13T13:53:30;3.20;;;1.35;;
54919;SDS011;63804;53.120;8.764;2023-07-13T13:55:58;3.67;;;1.38;;
54919;SDS011;63804;53.120;8.764;2023-07-13T13:58:26;3.42;;;1.45;;
54919;SDS011;63804;53.120;8.764;2023-07-13T14:00:54;3.95;;;1.38;;
54919;SDS011;63804;53.120;8.764;2023-07-13T14:03:21;3.58;;;1.40;;
54919;SDS011;63804;53.120;8.764;2023-07-13T14:05:49;4.18;;;1.40;;
54919;SDS011;63804;53.120;8.764;2023-07-13T14:08:20;3.58;;;1.30;;
54919;SDS011;63804;53.120;8.764;2023-07-13T14:10:49;3.78;;;1.60;;
54919;SDS011;63804;53.120;8.764;2023-07-13T14:13:25;3.00;;;1.48;;
54919;SDS011;63804;53.120;8.764;2023-07-13T14:15:56;3.55;;;1.40;;
54919;SDS011;63804;53.120;8.764;2023-07-13T14:18:25;3.45;;;1.40;;
54919;SDS011;63804;53.120;8.764;2023-07-13T14:20:52;3.33;;;1.50;;
54919;SDS011;63804;53.120;8.764;2023-07-13T14:23:20;4.68;;;1.60;;
54919;SDS011;63804;53.120;8.764;2023-07-13T14:25:50;4.78;;;1.27;;
54919;SDS011;63804;53.120;8.764;2023-07-13T14:30:48;3.63;;;1.33;;
54919;SDS011;63804;53.120;8.764;2023-07-13T14:33:16;3.45;;;1.65;;
54919;SDS011;63804;53.120;8.764;2023-07-13T14:35:44;3.38;;;1.40;;
54919;SDS011;63804;53.120;8.764;2023-07-13T14:38:12;2.13;;;1.23;;
54919;SDS011;63804;53.120;8.764;2023-07-13T14:40:42;3.65;;;1.50;;
54919;SDS011;63804;53.120;8.764;2023-07-13T14:43:14;5.53;;;2.05;;
54919;SDS011;63804;53.120;8.764;2023-07-13T14:45:43;5.15;;;1.90;;
54919;SDS011;63804;53.120;8.764;2023-07-13T14:48:17;2.75;;;1.48;;
54919;SDS011;63804;53.120;8.764;2023-07-13T14:53:17;4.68;;;1.30;;
54919;SDS011;63804;53.120;8.764;2023-07-13T14:55:45;3.33;;;1.05;;
54919;SDS011;63804;53.120;8.764;2023-07-13T14:58:12;1.55;;;1.10;;
54919;SDS011;63804;53.120;8.764;2023-07-13T15:00:40;2.50;;;1.00;;
54919;SDS011;63804;53.120;8.764;2023-07-13T15:03:15;4.20;;;1.55;;
54919;SDS011;63804;53.120;8.764;2023-07-13T15:05:48;3.45;;;1.50;;
54919;SDS011;63804;53.120;8.764;2023-07-13T15:08:16;5.97;;;1.80;;
54919;SDS011;63804;53.120;8.764;2023-07-13T15:10:44;8.68;;;2.15;;
54919;SDS011;63804;53.120;8.764;2023-07-13T15:13:13;6.25;;;1.38;;
54919;SDS011;63804;53.120;8.764;2023-07-13T15:15:44;3.97;;;0.80;;
54919;SDS011;63804;53.120;8.764;2023-07-13T15:18:15;4.10;;;1.00;;
54919;SDS011;63804;53.120;8.764;2023-07-13T15:20:45;3.85;;;1.05;;
54919;SDS011;63804;53.120;8.764;2023-07-13T15:23:14;2.05;;;0.80;;
54919;SDS011;63804;53.120;8.764;2023-07-13T15:25:43;3.45;;;1.02;;
54919;SDS011;63804;53.120;8.764;2023-07-13T15:28:11;2.53;;;1.10;;
54919;SDS011;63804;53.120;8.764;2023-07-13T15:30:48;4.18;;;1.30;;
54919;SDS011;63804;53.120;8.764;2023-07-13T15:33:19;4.00;;;1.65;;
54919;SDS011;63804;53.120;8.764;2023-07-13T15:35:49;3.45;;;1.80;;
54919;SDS011;63804;53.120;8.764;2023-07-13T15:38:22;5.18;;;2.13;;
54919;SDS011;63804;53.120;8.764;2023-07-13T15:43:18;6.15;;;2.78;;
54919;SDS011;63804;53.120;8.764;2023-07-13T15:45:46;7.97;;;3.55;;
54919;SDS011;63804;53.120;8.764;2023-07-13T15:50:45;8.05;;;4.30;;
54919;SDS011;63804;53.120;8.764;2023-07-13T15:53:17;9.10;;;4.88;;
54919;SDS011;63804;53.120;8.764;2023-07-13T15:55:48;7.47;;;3.55;;